Cotuit, Massachusetts
Current Conditions -  °F | °C
As of 3:55 AM on Wednesday 26 Nov 2014 (Local Time) from KFMH Reporting Station
Overcast Overcast  
Wind Chill: 44°   Ceiling: 12000
Heat Index: 46°   Visibility: 10mi
Dew Point: 32°   Wind: 5mph
Humidity: 57%   Direction: 330°NNW
Pressure: 30.18"   Gusts: NA
Location:  41.62°N, 70.44°W
Report Text: KFMH 260855Z AUTO 33004KT 10SM FEW070 SCT090 OVC120 08/00 A3018 RMK AO2
Loading
Personal Weather Stations






























Interactive Weather Map New forecast layout! Learn more

10-Day Weather Forecast

Advertisements
Track Severe Weather on mobile